sensor_id;sensor_type;location;lat;lon;timestamp;temperature;humidity
12520;DHT22;6325;49.540;8.364;2024-01-30T00:02:01;2.10;99.90
12520;DHT22;6325;49.540;8.364;2024-01-30T00:04:28;2.40;99.90
12520;DHT22;6325;49.540;8.364;2024-01-30T00:06:56;2.40;99.90
12520;DHT22;6325;49.540;8.364;2024-01-30T00:09:23;2.20;99.90
12520;DHT22;6325;49.540;8.364;2024-01-30T00:11:50;2.40;99.90
12520;DHT22;6325;49.540;8.364;2024-01-30T00:14:17;2.30;99.90
12520;DHT22;6325;49.540;8.364;2024-01-30T00:16:44;2.60;99.90
12520;DHT22;6325;49.540;8.364;2024-01-30T00:19:11;1.90;99.90
12520;DHT22;6325;49.540;8.364;2024-01-30T00:21:38;2.80;99.90
12520;DHT22;6325;49.540;8.364;2024-01-30T00:24:06;2.20;99.90
12520;DHT22;6325;49.540;8.364;2024-01-30T00:26:33;2.30;99.90
12520;DHT22;6325;49.540;8.364;2024-01-30T00:29:00;1.70;99.90
12520;DHT22;6325;49.540;8.364;2024-01-30T00:31:27;2.10;99.90
12520;DHT22;6325;49.540;8.364;2024-01-30T00:33:53;2.20;99.90
12520;DHT22;6325;49.540;8.364;2024-01-30T00:36:20;2.50;99.90
12520;DHT22;6325;49.540;8.364;2024-01-30T00:38:47;2.30;99.90
12520;DHT22;6325;49.540;8.364;2024-01-30T00:41:17;1.80;99.90
12520;DHT22;6325;49.540;8.364;2024-01-30T00:43:44;2.60;99.90
12520;DHT22;6325;49.540;8.364;2024-01-30T00:46:11;2.10;99.90
12520;DHT22;6325;49.540;8.364;2024-01-30T00:48:38;2.70;99.90
12520;DHT22;6325;49.540;8.364;2024-01-30T00:51:05;2.70;99.90
12520;DHT22;6325;49.540;8.364;2024-01-30T00:53:31;2.50;99.90
12520;DHT22;6325;49.540;8.364;2024-01-30T00:55:58;1.50;99.90
12520;DHT22;6325;49.540;8.364;2024-01-30T00:58:26;2.50;99.90
12520;DHT22;6325;49.540;8.364;2024-01-30T01:00:53;1.60;99.90
12520;DHT22;6325;49.540;8.364;2024-01-30T01:03:20;2.70;99.90
12520;DHT22;6325;49.540;8.364;2024-01-30T01:05:47;2.20;99.90
12520;DHT22;6325;49.540;8.364;2024-01-30T01:08:13;2.60;99.90
12520;DHT22;6325;49.540;8.364;2024-01-30T01:10:40;2.70;99.90
12520;DHT22;6325;49.540;8.364;2024-01-30T01:13:07;2.30;99.90
12520;DHT22;6325;49.540;8.364;2024-01-30T01:15:35;2.60;99.90
12520;DHT22;6325;49.540;8.364;2024-01-30T01:18:03;2.70;99.90
12520;DHT22;6325;49.540;8.364;2024-01-30T01:20:29;2.20;99.90
12520;DHT22;6325;49.540;8.364;2024-01-30T01:22:56;2.60;99.90
12520;DHT22;6325;49.540;8.364;2024-01-30T01:25:23;2.80;99.90
12520;DHT22;6325;49.540;8.364;2024-01-30T01:27:50;2.80;99.90
12520;DHT22;6325;49.540;8.364;2024-01-30T01:30:18;2.50;99.90
12520;DHT22;6325;49.540;8.364;2024-01-30T01:32:48;2.70;99.90
12520;DHT22;6325;49.540;8.364;2024-01-30T01:35:21;2.80;99.90
12520;DHT22;6325;49.540;8.364;2024-01-30T01:37:48;2.30;99.90
12520;DHT22;6325;49.540;8.364;2024-01-30T01:40:20;2.60;99.90
12520;DHT22;6325;49.540;8.364;2024-01-30T01:42:47;2.10;99.90
12520;DHT22;6325;49.540;8.364;2024-01-30T01:45:14;2.30;99.90
12520;DHT22;6325;49.540;8.364;2024-01-30T01:47:41;2.00;99.90
12520;DHT22;6325;49.540;8.364;2024-01-30T01:50:10;1.90;99.90
12520;DHT22;6325;49.540;8.364;2024-01-30T01:52:37;2.30;99.90
12520;DHT22;6325;49.540;8.364;2024-01-30T01:55:06;1.90;99.90
12520;DHT22;6325;49.540;8.364;2024-01-30T01:57:33;2.20;99.90
12520;DHT22;6325;49.540;8.364;2024-01-30T02:00:00;2.70;99.90
12520;DHT22;6325;49.540;8.364;2024-01-30T02:02:30;1.70;99.90
12520;DHT22;6325;49.540;8.364;2024-01-30T02:04:57;1.90;99.90
12520;DHT22;6325;49.540;8.364;2024-01-30T02:07:25;1.90;99.90
12520;DHT22;6325;49.540;8.364;2024-01-30T02:09:53;2.10;99.90
12520;DHT22;6325;49.540;8.364;2024-01-30T02:12:20;2.20;99.90
12520;DHT22;6325;49.540;8.364;2024-01-30T02:14:48;2.10;99.90
12520;DHT22;6325;49.540;8.364;2024-01-30T02:17:16;2.10;99.90
12520;DHT22;6325;49.540;8.364;2024-01-30T02:19:43;1.80;99.90
12520;DHT22;6325;49.540;8.364;2024-01-30T02:22:11;1.60;99.90
12520;DHT22;6325;49.540;8.364;2024-01-30T02:24:39;2.00;99.90
12520;DHT22;6325;49.540;8.364;2024-01-30T02:27:06;1.60;99.90
12520;DHT22;6325;49.540;8.364;2024-01-30T02:29:33;1.80;99.90
12520;DHT22;6325;49.540;8.364;2024-01-30T02:31:59;2.10;99.90
12520;DHT22;6325;49.540;8.364;2024-01-30T02:34:26;2.40;99.90
12520;DHT22;6325;49.540;8.364;2024-01-30T02:36:53;2.10;99.90
12520;DHT22;6325;49.540;8.364;2024-01-30T02:39:21;2.30;99.90
12520;DHT22;6325;49.540;8.364;2024-01-30T02:41:47;2.00;99.90
12520;DHT22;6325;49.540;8.364;2024-01-30T02:44:14;2.30;99.90
12520;DHT22;6325;49.540;8.364;2024-01-30T02:46:40;1.70;99.90
12520;DHT22;6325;49.540;8.364;2024-01-30T02:49:07;2.30;99.90
12520;DHT22;6325;49.540;8.364;2024-01-30T02:51:34;1.70;99.90
12520;DHT22;6325;49.540;8.364;2024-01-30T02:54:00;1.60;99.90
12520;DHT22;6325;49.540;8.364;2024-01-30T02:56:28;2.20;99.90
12520;DHT22;6325;49.540;8.364;2024-01-30T02:58:55;1.80;99.90
12520;DHT22;6325;49.540;8.364;2024-01-30T03:01:22;1.60;99.90
12520;DHT22;6325;49.540;8.364;2024-01-30T03:03:50;2.20;99.90
12520;DHT22;6325;49.540;8.364;2024-01-30T03:06:16;1.00;99.90
12520;DHT22;6325;49.540;8.364;2024-01-30T03:08:45;2.10;99.90
12520;DHT22;6325;49.540;8.364;2024-01-30T03:11:12;1.90;99.90
12520;DHT22;6325;49.540;8.364;2024-01-30T03:13:40;2.10;99.90
12520;DHT22;6325;49.540;8.364;2024-01-30T03:16:08;1.60;99.90
12520;DHT22;6325;49.540;8.364;2024-01-30T03:18:35;1.70;99.90
12520;DHT22;6325;49.540;8.364;2024-01-30T03:21:02;1.50;99.90
12520;DHT22;6325;49.540;8.364;2024-01-30T03:23:28;2.00;99.90
12520;DHT22;6325;49.540;8.364;2024-01-30T03:26:01;1.40;99.90
12520;DHT22;6325;49.540;8.364;2024-01-30T03:28:29;2.00;99.90
12520;DHT22;6325;49.540;8.364;2024-01-30T03:30:58;2.10;99.90
12520;DHT22;6325;49.540;8.364;2024-01-30T03:33:24;1.20;99.90
12520;DHT22;6325;49.540;8.364;2024-01-30T03:35:51;2.20;99.90
12520;DHT22;6325;49.540;8.364;2024-01-30T03:38:18;2.10;99.90
12520;DHT22;6325;49.540;8.364;2024-01-30T03:40:44;1.90;99.90
12520;DHT22;6325;49.540;8.364;2024-01-30T03:43:11;1.40;99.90
12520;DHT22;6325;49.540;8.364;2024-01-30T03:45:38;1.80;99.90
12520;DHT22;6325;49.540;8.364;2024-01-30T03:48:07;1.50;99.90
12520;DHT22;6325;49.540;8.364;2024-01-30T03:50:33;1.50;99.90
12520;DHT22;6325;49.540;8.364;2024-01-30T03:53:00;1.30;99.90
12520;DHT22;6325;49.540;8.364;2024-01-30T03:55:27;1.90;99.90
12520;DHT22;6325;49.540;8.364;2024-01-30T03:57:54;2.10;99.90
12520;DHT22;6325;49.540;8.364;2024-01-30T04:00:21;0.90;99.90
12520;DHT22;6325;49.540;8.364;2024-01-30T04:02:47;1.70;99.90
12520;DHT22;6325;49.540;8.364;2024-01-30T04:05:17;1.60;99.90
12520;DHT22;6325;49.540;8.364;2024-01-30T04:07:44;0.90;99.90
12520;DHT22;6325;49.540;8.364;2024-01-30T04:10:11;1.50;99.90
12520;DHT22;6325;49.540;8.364;2024-01-30T04:12:37;1.80;99.90
12520;DHT22;6325;49.540;8.364;2024-01-30T04:15:05;1.50;99.90
12520;DHT22;6325;49.540;8.364;2024-01-30T04:17:32;1.10;99.90
12520;DHT22;6325;49.540;8.364;2024-01-30T04:19:58;2.00;99.90
12520;DHT22;6325;49.540;8.364;2024-01-30T04:22:26;0.80;99.90
12520;DHT22;6325;49.540;8.364;2024-01-30T04:24:53;1.90;99.90
12520;DHT22;6325;49.540;8.364;2024-01-30T04:27:20;2.00;99.90
12520;DHT22;6325;49.540;8.364;2024-01-30T04:29:46;1.60;99.90
12520;DHT22;6325;49.540;8.364;2024-01-30T04:32:13;1.50;99.90
12520;DHT22;6325;49.540;8.364;2024-01-30T04:34:40;1.70;99.90
12520;DHT22;6325;49.540;8.364;2024-01-30T04:37:07;1.30;99.90
12520;DHT22;6325;49.540;8.364;2024-01-30T04:39:35;1.90;99.90
12520;DHT22;6325;49.540;8.364;2024-01-30T04:42:02;1.30;99.90
12520;DHT22;6325;49.540;8.364;2024-01-30T04:44:29;1.50;99.90
12520;DHT22;6325;49.540;8.364;2024-01-30T04:46:56;1.90;99.90
12520;DHT22;6325;49.540;8.364;2024-01-30T04:49:24;1.40;99.90
12520;DHT22;6325;49.540;8.364;2024-01-30T04:51:51;1.90;99.90
12520;DHT22;6325;49.540;8.364;2024-01-30T04:54:17;1.50;99.90
12520;DHT22;6325;49.540;8.364;2024-01-30T04:56:46;1.30;99.90
12520;DHT22;6325;49.540;8.364;2024-01-30T04:59:12;1.60;99.90
12520;DHT22;6325;49.540;8.364;2024-01-30T05:01:39;1.90;99.90
12520;DHT22;6325;49.540;8.364;2024-01-30T05:04:07;2.00;99.90
12520;DHT22;6325;49.540;8.364;2024-01-30T05:06:34;2.10;99.90
12520;DHT22;6325;49.540;8.364;2024-01-30T05:09:01;2.10;99.90
12520;DHT22;6325;49.540;8.364;2024-01-30T05:11:29;1.40;99.90
12520;DHT22;6325;49.540;8.364;2024-01-30T05:13:57;1.60;99.90
12520;DHT22;6325;49.540;8.364;2024-01-30T05:16:24;1.70;99.90
12520;DHT22;6325;49.540;8.364;2024-01-30T05:18:51;1.80;99.90
12520;DHT22;6325;49.540;8.364;2024-01-30T05:21:17;1.70;99.90
12520;DHT22;6325;49.540;8.364;2024-01-30T05:23:44;1.80;99.90
12520;DHT22;6325;49.540;8.364;2024-01-30T05:26:11;1.30;99.90
12520;DHT22;6325;49.540;8.364;2024-01-30T05:28:38;1.70;99.90
12520;DHT22;6325;49.540;8.364;2024-01-30T05:31:06;2.00;99.90
12520;DHT22;6325;49.540;8.364;2024-01-30T05:33:33;1.90;99.90
12520;DHT22;6325;49.540;8.364;2024-01-30T05:36:00;2.50;99.90
12520;DHT22;6325;49.540;8.364;2024-01-30T05:38:26;2.20;99.90
12520;DHT22;6325;49.540;8.364;2024-01-30T05:40:53;2.20;99.90
12520;DHT22;6325;49.540;8.364;2024-01-30T05:43:20;1.40;99.90
12520;DHT22;6325;49.540;8.364;2024-01-30T05:45:47;2.60;99.90
12520;DHT22;6325;49.540;8.364;2024-01-30T05:48:15;2.40;99.90
12520;DHT22;6325;49.540;8.364;2024-01-30T05:50:42;2.30;99.90
12520;DHT22;6325;49.540;8.364;2024-01-30T05:53:09;2.30;99.90
12520;DHT22;6325;49.540;8.364;2024-01-30T05:55:36;2.20;99.90
12520;DHT22;6325;49.540;8.364;2024-01-30T05:58:02;2.30;99.90
12520;DHT22;6325;49.540;8.364;2024-01-30T06:00:29;2.40;99.90
12520;DHT22;6325;49.540;8.364;2024-01-30T06:02:56;2.20;99.90
12520;DHT22;6325;49.540;8.364;2024-01-30T06:05:24;3.10;99.90
12520;DHT22;6325;49.540;8.364;2024-01-30T06:07:51;2.80;99.90
12520;DHT22;6325;49.540;8.364;2024-01-30T06:10:19;2.60;99.90
12520;DHT22;6325;49.540;8.364;2024-01-30T06:12:46;3.00;99.90
12520;DHT22;6325;49.540;8.364;2024-01-30T06:15:13;2.50;99.90
12520;DHT22;6325;49.540;8.364;2024-01-30T06:17:40;2.80;99.90
12520;DHT22;6325;49.540;8.364;2024-01-30T06:20:07;2.90;99.90
12520;DHT22;6325;49.540;8.364;2024-01-30T06:22:35;3.40;99.90
12520;DHT22;6325;49.540;8.364;2024-01-30T06:25:03;3.30;99.90
12520;DHT22;6325;49.540;8.364;2024-01-30T06:27:29;2.90;99.90
12520;DHT22;6325;49.540;8.364;2024-01-30T06:29:56;3.00;99.90
12520;DHT22;6325;49.540;8.364;2024-01-30T06:32:23;2.60;99.90
12520;DHT22;6325;49.540;8.364;2024-01-30T06:34:50;3.00;99.90
12520;DHT22;6325;49.540;8.364;2024-01-30T06:37:17;3.00;99.90
12520;DHT22;6325;49.540;8.364;2024-01-30T06:39:45;3.30;99.90
12520;DHT22;6325;49.540;8.364;2024-01-30T06:42:11;2.70;99.90
12520;DHT22;6325;49.540;8.364;2024-01-30T06:44:38;2.80;99.90
12520;DHT22;6325;49.540;8.364;2024-01-30T06:47:05;2.80;99.90
12520;DHT22;6325;49.540;8.364;2024-01-30T06:49:32;2.80;99.90
12520;DHT22;6325;49.540;8.364;2024-01-30T06:51:58;3.30;99.90
12520;DHT22;6325;49.540;8.364;2024-01-30T06:54:25;2.10;99.90
12520;DHT22;6325;49.540;8.364;2024-01-30T06:56:53;2.70;99.90
12520;DHT22;6325;49.540;8.364;2024-01-30T06:59:20;2.80;99.90
12520;DHT22;6325;49.540;8.364;2024-01-30T07:01:47;2.50;99.90
12520;DHT22;6325;49.540;8.364;2024-01-30T07:04:14;2.80;99.90
12520;DHT22;6325;49.540;8.364;2024-01-30T07:06:41;2.80;99.90
12520;DHT22;6325;49.540;8.364;2024-01-30T07:09:08;2.70;99.90
12520;DHT22;6325;49.540;8.364;2024-01-30T07:11:35;2.20;99.90
12520;DHT22;6325;49.540;8.364;2024-01-30T07:14:03;2.10;99.90
12520;DHT22;6325;49.540;8.364;2024-01-30T07:16:30;3.30;99.90
12520;DHT22;6325;49.540;8.364;2024-01-30T07:18:57;2.60;99.90
12520;DHT22;6325;49.540;8.364;2024-01-30T07:21:23;3.20;99.90
12520;DHT22;6325;49.540;8.364;2024-01-30T07:23:53;3.40;99.90
12520;DHT22;6325;49.540;8.364;2024-01-30T07:26:20;2.70;99.90
12520;DHT22;6325;49.540;8.364;2024-01-30T07:28:47;2.90;99.90
12520;DHT22;6325;49.540;8.364;2024-01-30T07:31:16;2.80;99.90
12520;DHT22;6325;49.540;8.364;2024-01-30T07:33:46;3.30;99.90
12520;DHT22;6325;49.540;8.364;2024-01-30T07:36:13;2.50;99.90
12520;DHT22;6325;49.540;8.364;2024-01-30T07:38:40;2.60;99.90
12520;DHT22;6325;49.540;8.364;2024-01-30T07:41:07;2.30;99.90
12520;DHT22;6325;49.540;8.364;2024-01-30T07:43:33;3.40;99.90
12520;DHT22;6325;49.540;8.364;2024-01-30T07:46:01;3.10;99.90
12520;DHT22;6325;49.540;8.364;2024-01-30T07:48:30;3.50;99.90
12520;DHT22;6325;49.540;8.364;2024-01-30T07:50:59;3.50;99.90
12520;DHT22;6325;49.540;8.364;2024-01-30T07:53:26;3.20;99.90
12520;DHT22;6325;49.540;8.364;2024-01-30T07:55:53;3.80;99.90
12520;DHT22;6325;49.540;8.364;2024-01-30T07:58:19;3.70;99.90
12520;DHT22;6325;49.540;8.364;2024-01-30T08:00:46;3.20;99.90
12520;DHT22;6325;49.540;8.364;2024-01-30T08:03:13;3.30;99.90
12520;DHT22;6325;49.540;8.364;2024-01-30T08:05:43;3.50;99.90
12520;DHT22;6325;49.540;8.364;2024-01-30T08:08:10;3.30;99.90
12520;DHT22;6325;49.540;8.364;2024-01-30T08:10:36;3.50;99.90
12520;DHT22;6325;49.540;8.364;2024-01-30T08:13:03;3.60;99.90
12520;DHT22;6325;49.540;8.364;2024-01-30T08:15:30;3.60;99.90
12520;DHT22;6325;49.540;8.364;2024-01-30T08:17:57;3.90;99.90
12520;DHT22;6325;49.540;8.364;2024-01-30T08:20:24;3.60;99.90
12520;DHT22;6325;49.540;8.364;2024-01-30T08:22:52;3.70;99.90
12520;DHT22;6325;49.540;8.364;2024-01-30T08:25:19;4.10;99.90
12520;DHT22;6325;49.540;8.364;2024-01-30T08:27:47;4.20;99.90
12520;DHT22;6325;49.540;8.364;2024-01-30T08:30:14;4.10;99.90
12520;DHT22;6325;49.540;8.364;2024-01-30T08:32:41;4.10;99.90
12520;DHT22;6325;49.540;8.364;2024-01-30T08:35:08;4.00;99.90
12520;DHT22;6325;49.540;8.364;2024-01-30T08:37:35;3.90;99.90
12520;DHT22;6325;49.540;8.364;2024-01-30T08:40:04;4.10;99.90
12520;DHT22;6325;49.540;8.364;2024-01-30T08:42:31;3.80;99.90
12520;DHT22;6325;49.540;8.364;2024-01-30T08:44:58;4.70;99.90
12520;DHT22;6325;49.540;8.364;2024-01-30T08:47:25;4.20;99.90
12520;DHT22;6325;49.540;8.364;2024-01-30T08:49:52;3.70;99.90
12520;DHT22;6325;49.540;8.364;2024-01-30T08:52:19;4.20;99.90
12520;DHT22;6325;49.540;8.364;2024-01-30T08:54:46;4.10;99.90
12520;DHT22;6325;49.540;8.364;2024-01-30T08:57:15;4.40;99.90
12520;DHT22;6325;49.540;8.364;2024-01-30T08:59:42;4.90;99.90
12520;DHT22;6325;49.540;8.364;2024-01-30T09:02:10;4.30;99.90
12520;DHT22;6325;49.540;8.364;2024-01-30T09:04:38;4.80;99.90
12520;DHT22;6325;49.540;8.364;2024-01-30T09:07:05;4.60;99.90
12520;DHT22;6325;49.540;8.364;2024-01-30T09:09:34;4.70;99.90
12520;DHT22;6325;49.540;8.364;2024-01-30T09:12:01;4.20;99.90
12520;DHT22;6325;49.540;8.364;2024-01-30T09:14:33;5.00;99.90
12520;DHT22;6325;49.540;8.364;2024-01-30T09:17:00;4.50;99.90
12520;DHT22;6325;49.540;8.364;2024-01-30T09:19:28;4.70;99.90
12520;DHT22;6325;49.540;8.364;2024-01-30T09:21:55;5.10;99.90
12520;DHT22;6325;49.540;8.364;2024-01-30T09:24:22;5.20;99.90
12520;DHT22;6325;49.540;8.364;2024-01-30T09:26:48;4.90;99.90
12520;DHT22;6325;49.540;8.364;2024-01-30T09:29:15;4.80;99.90
12520;DHT22;6325;49.540;8.364;2024-01-30T09:31:44;5.70;99.90
12520;DHT22;6325;49.540;8.364;2024-01-30T09:34:11;5.70;99.90
12520;DHT22;6325;49.540;8.364;2024-01-30T09:36:38;5.80;99.90
12520;DHT22;6325;49.540;8.364;2024-01-30T09:39:04;5.50;99.90
12520;DHT22;6325;49.540;8.364;2024-01-30T09:41:32;6.00;99.90
12520;DHT22;6325;49.540;8.364;2024-01-30T09:44:00;5.00;99.90
12520;DHT22;6325;49.540;8.364;2024-01-30T09:46:28;5.10;99.90
12520;DHT22;6325;49.540;8.364;2024-01-30T09:48:57;5.60;99.90
12520;DHT22;6325;49.540;8.364;2024-01-30T09:51:24;6.30;99.90
12520;DHT22;6325;49.540;8.364;2024-01-30T09:53:52;6.30;99.90
12520;DHT22;6325;49.540;8.364;2024-01-30T09:56:19;5.90;99.90
12520;DHT22;6325;49.540;8.364;2024-01-30T09:58:47;6.00;99.90
12520;DHT22;6325;49.540;8.364;2024-01-30T10:01:14;6.10;99.90
12520;DHT22;6325;49.540;8.364;2024-01-30T10:03:44;6.20;99.90
12520;DHT22;6325;49.540;8.364;2024-01-30T10:06:12;6.50;99.90
12520;DHT22;6325;49.540;8.364;2024-01-30T10:08:39;6.30;99.90
12520;DHT22;6325;49.540;8.364;2024-01-30T10:11:06;6.40;99.90
12520;DHT22;6325;49.540;8.364;2024-01-30T10:13:33;6.30;99.90
12520;DHT22;6325;49.540;8.364;2024-01-30T10:15:59;6.20;99.90
12520;DHT22;6325;49.540;8.364;2024-01-30T10:18:28;6.60;99.90
12520;DHT22;6325;49.540;8.364;2024-01-30T10:20:55;6.60;99.90
12520;DHT22;6325;49.540;8.364;2024-01-30T10:23:23;6.10;99.90
12520;DHT22;6325;49.540;8.364;2024-01-30T10:25:51;7.10;99.90
12520;DHT22;6325;49.540;8.364;2024-01-30T10:28:18;6.70;99.90
12520;DHT22;6325;49.540;8.364;2024-01-30T10:30:56;6.80;99.90
12520;DHT22;6325;49.540;8.364;2024-01-30T10:33:24;6.90;99.90
12520;DHT22;6325;49.540;8.364;2024-01-30T10:35:51;6.90;99.90
12520;DHT22;6325;49.540;8.364;2024-01-30T10:38:20;7.10;99.90
12520;DHT22;6325;49.540;8.364;2024-01-30T10:40:51;7.20;99.90
12520;DHT22;6325;49.540;8.364;2024-01-30T10:43:22;6.90;99.90
12520;DHT22;6325;49.540;8.364;2024-01-30T10:45:49;7.40;99.90
12520;DHT22;6325;49.540;8.364;2024-01-30T10:48:25;7.20;99.90
12520;DHT22;6325;49.540;8.364;2024-01-30T10:50:55;7.60;99.90
12520;DHT22;6325;49.540;8.364;2024-01-30T10:53:25;7.70;99.90
12520;DHT22;6325;49.540;8.364;2024-01-30T10:55:54;8.30;99.90
12520;DHT22;6325;49.540;8.364;2024-01-30T10:58:22;7.90;99.90
12520;DHT22;6325;49.540;8.364;2024-01-30T11:00:50;8.30;99.90
12520;DHT22;6325;49.540;8.364;2024-01-30T11:03:18;7.80;99.90
12520;DHT22;6325;49.540;8.364;2024-01-30T11:05:49;8.50;99.90
12520;DHT22;6325;49.540;8.364;2024-01-30T11:08:22;7.90;99.90
12520;DHT22;6325;49.540;8.364;2024-01-30T11:10:54;8.00;99.90
12520;DHT22;6325;49.540;8.364;2024-01-30T11:13:22;9.00;99.90
12520;DHT22;6325;49.540;8.364;2024-01-30T11:15:48;8.50;99.90
12520;DHT22;6325;49.540;8.364;2024-01-30T11:18:23;8.50;99.90
12520;DHT22;6325;49.540;8.364;2024-01-30T11:20:50;8.50;99.90
12520;DHT22;6325;49.540;8.364;2024-01-30T11:23:17;8.70;99.90
12520;DHT22;6325;49.540;8.364;2024-01-30T11:25:44;9.00;99.90
12520;DHT22;6325;49.540;8.364;2024-01-30T11:28:13;9.00;99.90
12520;DHT22;6325;49.540;8.364;2024-01-30T11:30:42;9.00;99.90
12520;DHT22;6325;49.540;8.364;2024-01-30T11:33:10;9.30;99.90
12520;DHT22;6325;49.540;8.364;2024-01-30T11:35:38;8.70;99.90
12520;DHT22;6325;49.540;8.364;2024-01-30T11:38:06;8.60;99.90
12520;DHT22;6325;49.540;8.364;2024-01-30T11:40:34;8.10;99.90
12520;DHT22;6325;49.540;8.364;2024-01-30T11:43:03;9.10;99.90
12520;DHT22;6325;49.540;8.364;2024-01-30T11:45:31;9.20;99.90
12520;DHT22;6325;49.540;8.364;2024-01-30T11:47:59;8.70;99.90
12520;DHT22;6325;49.540;8.364;2024-01-30T11:50:28;8.30;99.90
12520;DHT22;6325;49.540;8.364;2024-01-30T11:52:55;9.00;99.90
12520;DHT22;6325;49.540;8.364;2024-01-30T11:55:23;9.10;99.90
12520;DHT22;6325;49.540;8.364;2024-01-30T11:57:50;8.90;99.90
12520;DHT22;6325;49.540;8.364;2024-01-30T12:00:18;8.90;99.90
12520;DHT22;6325;49.540;8.364;2024-01-30T12:02:49;9.30;99.90
12520;DHT22;6325;49.540;8.364;2024-01-30T12:05:19;8.60;99.90
12520;DHT22;6325;49.540;8.364;2024-01-30T12:07:46;9.10;99.90
12520;DHT22;6325;49.540;8.364;2024-01-30T12:10:13;8.60;99.90
12520;DHT22;6325;49.540;8.364;2024-01-30T12:12:42;9.70;99.90
12520;DHT22;6325;49.540;8.364;2024-01-30T12:15:10;9.20;99.90
12520;DHT22;6325;49.540;8.364;2024-01-30T12:17:37;10.00;99.90
12520;DHT22;6325;49.540;8.364;2024-01-30T12:20:04;9.60;99.90
12520;DHT22;6325;49.540;8.364;2024-01-30T12:22:35;9.50;99.90
12520;DHT22;6325;49.540;8.364;2024-01-30T12:25:03;9.60;99.90
12520;DHT22;6325;49.540;8.364;2024-01-30T12:27:30;9.90;99.90
12520;DHT22;6325;49.540;8.364;2024-01-30T12:29:57;10.10;99.90
12520;DHT22;6325;49.540;8.364;2024-01-30T12:32:24;9.90;99.90
12520;DHT22;6325;49.540;8.364;2024-01-30T12:34:54;9.30;99.90
12520;DHT22;6325;49.540;8.364;2024-01-30T12:37:21;10.10;99.90
12520;DHT22;6325;49.540;8.364;2024-01-30T12:39:51;10.20;99.90
12520;DHT22;6325;49.540;8.364;2024-01-30T12:42:19;10.40;99.90
12520;DHT22;6325;49.540;8.364;2024-01-30T12:44:47;10.70;99.90
12520;DHT22;6325;49.540;8.364;2024-01-30T12:47:13;10.40;99.90
12520;DHT22;6325;49.540;8.364;2024-01-30T12:49:41;11.10;99.90
12520;DHT22;6325;49.540;8.364;2024-01-30T12:52:08;10.20;99.90
12520;DHT22;6325;49.540;8.364;2024-01-30T12:54:35;10.40;99.90
12520;DHT22;6325;49.540;8.364;2024-01-30T12:57:04;10.20;99.90
12520;DHT22;6325;49.540;8.364;2024-01-30T12:59:31;10.70;99.90
12520;DHT22;6325;49.540;8.364;2024-01-30T13:02:00;10.20;99.90
12520;DHT22;6325;49.540;8.364;2024-01-30T13:04:27;11.50;99.90
12520;DHT22;6325;49.540;8.364;2024-01-30T13:06:54;11.50;99.90
12520;DHT22;6325;49.540;8.364;2024-01-30T13:09:21;11.40;99.90
12520;DHT22;6325;49.540;8.364;2024-01-30T13:11:48;11.50;99.90
12520;DHT22;6325;49.540;8.364;2024-01-30T13:14:16;11.50;99.90
12520;DHT22;6325;49.540;8.364;2024-01-30T13:16:43;11.50;99.90
12520;DHT22;6325;49.540;8.364;2024-01-30T13:19:10;11.90;99.90
12520;DHT22;6325;49.540;8.364;2024-01-30T13:21:37;11.90;99.90
12520;DHT22;6325;49.540;8.364;2024-01-30T13:24:05;12.00;99.90
12520;DHT22;6325;49.540;8.364;2024-01-30T13:26:32;11.70;99.90
12520;DHT22;6325;49.540;8.364;2024-01-30T13:28:58;12.00;99.90
12520;DHT22;6325;49.540;8.364;2024-01-30T13:31:26;11.40;99.90
12520;DHT22;6325;49.540;8.364;2024-01-30T13:33:54;11.40;99.90
12520;DHT22;6325;49.540;8.364;2024-01-30T13:36:21;11.30;99.90
12520;DHT22;6325;49.540;8.364;2024-01-30T13:38:48;11.20;99.90
12520;DHT22;6325;49.540;8.364;2024-01-30T13:41:14;11.30;99.90
12520;DHT22;6325;49.540;8.364;2024-01-30T13:43:43;11.30;99.90
12520;DHT22;6325;49.540;8.364;2024-01-30T13:46:10;11.90;99.90
12520;DHT22;6325;49.540;8.364;2024-01-30T13:48:38;11.10;99.90
12520;DHT22;6325;49.540;8.364;2024-01-30T13:51:05;11.30;99.90
12520;DHT22;6325;49.540;8.364;2024-01-30T13:53:32;11.00;99.90
12520;DHT22;6325;49.540;8.364;2024-01-30T13:55:59;11.10;99.90
12520;DHT22;6325;49.540;8.364;2024-01-30T13:58:26;11.20;99.90
12520;DHT22;6325;49.540;8.364;2024-01-30T14:00:52;11.10;99.90
12520;DHT22;6325;49.540;8.364;2024-01-30T14:03:19;11.10;99.90
12520;DHT22;6325;49.540;8.364;2024-01-30T14:05:47;11.10;99.90
12520;DHT22;6325;49.540;8.364;2024-01-30T14:08:15;10.60;99.90
12520;DHT22;6325;49.540;8.364;2024-01-30T14:10:42;11.10;99.90
12520;DHT22;6325;49.540;8.364;2024-01-30T14:13:09;10.80;99.90
12520;DHT22;6325;49.540;8.364;2024-01-30T14:15:37;11.20;99.90
12520;DHT22;6325;49.540;8.364;2024-01-30T14:18:04;11.50;99.90
12520;DHT22;6325;49.540;8.364;2024-01-30T14:20:31;11.60;99.90
12520;DHT22;6325;49.540;8.364;2024-01-30T14:22:59;11.70;99.90
12520;DHT22;6325;49.540;8.364;2024-01-30T14:25:25;11.20;99.90
12520;DHT22;6325;49.540;8.364;2024-01-30T14:27:52;10.90;99.90
12520;DHT22;6325;49.540;8.364;2024-01-30T14:30:19;11.00;99.90
12520;DHT22;6325;49.540;8.364;2024-01-30T14:32:46;11.00;99.90
12520;DHT22;6325;49.540;8.364;2024-01-30T14:35:14;11.00;99.90
12520;DHT22;6325;49.540;8.364;2024-01-30T14:37:40;11.00;99.90
12520;DHT22;6325;49.540;8.364;2024-01-30T14:40:09;11.60;99.90
12520;DHT22;6325;49.540;8.364;2024-01-30T14:42:36;11.00;99.90
12520;DHT22;6325;49.540;8.364;2024-01-30T14:45:03;11.60;99.90
12520;DHT22;6325;49.540;8.364;2024-01-30T14:47:31;11.30;99.90
12520;DHT22;6325;49.540;8.364;2024-01-30T14:49:57;11.50;99.90
12520;DHT22;6325;49.540;8.364;2024-01-30T14:52:24;11.20;99.90
12520;DHT22;6325;49.540;8.364;2024-01-30T14:54:51;11.10;99.90
12520;DHT22;6325;49.540;8.364;2024-01-30T14:57:19;11.10;99.90
12520;DHT22;6325;49.540;8.364;2024-01-30T14:59:46;11.20;99.90
12520;DHT22;6325;49.540;8.364;2024-01-30T15:02:13;10.50;99.90
12520;DHT22;6325;49.540;8.364;2024-01-30T15:04:41;11.20;99.90
12520;DHT22;6325;49.540;8.364;2024-01-30T15:07:08;10.80;99.90
12520;DHT22;6325;49.540;8.364;2024-01-30T15:09:35;10.70;99.90
12520;DHT22;6325;49.540;8.364;2024-01-30T15:12:02;10.70;99.90
12520;DHT22;6325;49.540;8.364;2024-01-30T15:14:30;11.20;99.90
12520;DHT22;6325;49.540;8.364;2024-01-30T15:16:58;11.10;99.90
12520;DHT22;6325;49.540;8.364;2024-01-30T15:19:25;11.00;99.90
12520;DHT22;6325;49.540;8.364;2024-01-30T15:21:52;10.50;99.90
12520;DHT22;6325;49.540;8.364;2024-01-30T15:24:18;10.40;99.90
12520;DHT22;6325;49.540;8.364;2024-01-30T15:26:49;10.00;99.90
12520;DHT22;6325;49.540;8.364;2024-01-30T15:29:16;10.70;99.90
12520;DHT22;6325;49.540;8.364;2024-01-30T15:31:45;10.80;99.90
12520;DHT22;6325;49.540;8.364;2024-01-30T15:34:11;10.30;99.90
12520;DHT22;6325;49.540;8.364;2024-01-30T15:36:38;10.30;99.90
12520;DHT22;6325;49.540;8.364;2024-01-30T15:39:05;10.00;99.90
12520;DHT22;6325;49.540;8.364;2024-01-30T15:41:32;10.20;99.90
12520;DHT22;6325;49.540;8.364;2024-01-30T15:43:58;10.10;99.90
12520;DHT22;6325;49.540;8.364;2024-01-30T15:46:27;10.70;99.90
12520;DHT22;6325;49.540;8.364;2024-01-30T15:48:56;10.20;99.90
12520;DHT22;6325;49.540;8.364;2024-01-30T15:51:22;9.80;99.90
12520;DHT22;6325;49.540;8.364;2024-01-30T15:53:50;10.10;99.90
12520;DHT22;6325;49.540;8.364;2024-01-30T15:56:17;10.40;99.90
12520;DHT22;6325;49.540;8.364;2024-01-30T15:58:44;10.00;99.90